Time;durP1;ratioP1;P1;durP2;ratioP2;P2;SDS_P1;SDS_P2;PMS_P1;PMS_P2;Temp;Humidity;BMP_temperature;BMP_pressure;BME280_temperature;BME280_humidity;BME280_pressure;Samples;Min_cycle;Max_cycle;Signal;HPM_P1;HPM_P2
2023/10/04 00:00:20;;;;;;;8.47;3.50;;;13.10;1.00;;;;;;5023717;28;20169;-75
2023/10/04 00:02:49;;;;;;;7.67;2.80;;;13.10;1.00;;;;;;5023811;28;20831;-75
2023/10/04 00:05:16;;;;;;;3.90;3.07;;;13.10;1.00;;;;;;5025128;28;20946;-75
2023/10/04 00:07:43;;;;;;;6.50;2.90;;;13.10;1.00;;;;;;5048221;28;20433;-77
2023/10/04 00:10:10;;;;;;;6.53;3.43;;;13.10;1.00;;;;;;5025907;28;20521;-75
2023/10/04 00:12:36;;;;;;;5.40;3.10;;;13.10;1.00;;;;;;5023134;28;20999;-74
2023/10/04 00:15:04;;;;;;;4.43;2.80;;;13.10;1.00;;;;;;5027369;28;20431;-76
2023/10/04 00:17:29;;;;;;;5.10;3.17;;;13.10;1.00;;;;;;5012351;28;20819;-75
2023/10/04 00:19:55;;;;;;;6.83;3.20;;;13.00;1.00;;;;;;5012775;28;20437;-76
2023/10/04 00:22:22;;;;;;;4.30;3.10;;;13.00;1.00;;;;;;5026291;28;20720;-75
2023/10/04 00:24:51;;;;;;;7.30;3.30;;;12.90;1.00;;;;;;5025554;28;20174;-75
2023/10/04 00:27:17;;;;;;;4.17;3.00;;;12.90;1.00;;;;;;5024235;28;20456;-76
2023/10/04 00:29:44;;;;;;;6.43;3.40;;;12.90;1.00;;;;;;5027543;28;20962;-76
2023/10/04 00:32:09;;;;;;;7.30;3.27;;;12.90;1.00;;;;;;5019980;28;20452;-74
2023/10/04 00:34:38;;;;;;;8.27;3.60;;;12.80;1.00;;;;;;5029279;28;20516;-76
2023/10/04 00:37:07;;;;;;;8.83;3.43;;;12.80;1.00;;;;;;5023164;28;20268;-76
2023/10/04 00:39:39;;;;;;;5.90;3.73;;;12.80;1.00;;;;;;5023112;28;20424;-78
2023/10/04 00:42:04;;;;;;;7.03;3.67;;;12.80;1.00;;;;;;5030505;28;20447;-75
2023/10/04 00:44:35;;;;;;;5.40;3.50;;;14.40;1.00;;;;;;5031515;28;20922;-76
2023/10/04 00:47:00;;;;;;;7.30;3.37;;;12.70;1.00;;;;;;5032053;28;20300;-76
2023/10/04 00:49:26;;;;;;;6.53;3.33;;;12.60;1.00;;;;;;5031798;28;20556;-76
2023/10/04 00:51:52;;;;;;;6.10;3.43;;;12.60;1.00;;;;;;5033259;28;20214;-75
2023/10/04 00:54:18;;;;;;;5.93;3.30;;;12.60;1.00;;;;;;5031404;28;20503;-75
2023/10/04 00:56:46;;;;;;;6.10;3.47;;;12.60;1.00;;;;;;5026971;28;20233;-75
2023/10/04 00:59:12;;;;;;;13.00;3.30;;;12.70;1.00;;;;;;5028736;28;20432;-76
2023/10/04 01:01:40;;;;;;;5.60;3.30;;;12.70;1.00;;;;;;5043866;28;20448;-76
2023/10/04 01:04:07;;;;;;;4.60;2.60;;;12.60;1.00;;;;;;5033569;28;20423;-76
2023/10/04 01:06:35;;;;;;;5.53;3.30;;;12.70;1.00;;;;;;5030337;28;20427;-75
2023/10/04 01:09:01;;;;;;;6.63;2.83;;;12.60;1.00;;;;;;5032048;28;20421;-75
2023/10/04 01:11:32;;;;;;;5.10;2.43;;;12.60;1.00;;;;;;5030008;28;20976;-76
2023/10/04 01:14:09;;;;;;;4.63;2.97;;;12.60;1.00;;;;;;5033063;28;20181;-75
2023/10/04 01:16:38;;;;;;;8.97;3.07;;;12.50;1.00;;;;;;5030849;28;20459;-75
2023/10/04 01:19:04;;;;;;;4.50;2.83;;;12.50;1.00;;;;;;5030617;28;20432;-76
2023/10/04 01:21:30;;;;;;;8.37;3.40;;;12.50;1.00;;;;;;5030482;28;20441;-77
2023/10/04 01:23:56;;;;;;;5.87;3.20;;;12.40;1.00;;;;;;5031020;28;20604;-76
2023/10/04 01:26:25;;;;;;;4.17;2.70;;;12.40;1.00;;;;;;5030718;28;20258;-78
2023/10/04 01:28:52;;;;;;;3.03;2.40;;;12.40;1.00;;;;;;5030728;28;20185;-75
2023/10/04 01:31:17;;;;;;;8.60;2.73;;;12.40;1.00;;;;;;5030162;28;20427;-77
2023/10/04 01:33:43;;;;;;;5.27;2.70;;;12.30;1.00;;;;;;5030984;28;20425;-76
2023/10/04 01:36:08;;;;;;;6.30;3.17;;;12.30;1.00;;;;;;5030837;28;20545;-75
2023/10/04 01:38:35;;;;;;;4.73;3.00;;;12.20;1.00;;;;;;5029798;28;20174;-75
2023/10/04 01:41:00;;;;;;;4.97;2.87;;;12.20;1.00;;;;;;5030346;28;20180;-75
2023/10/04 01:43:27;;;;;;;6.07;2.67;;;12.20;1.00;;;;;;5030559;28;20439;-75
2023/10/04 01:45:58;;;;;;;4.30;3.10;;;12.20;1.00;;;;;;5030835;28;20193;-74
2023/10/04 01:48:24;;;;;;;9.30;3.13;;;12.20;1.00;;;;;;5028829;28;20431;-74
2023/10/04 01:50:52;;;;;;;4.90;3.13;;;12.30;1.00;;;;;;5030492;28;20498;-74
2023/10/04 01:53:21;;;;;;;6.20;2.77;;;12.20;1.00;;;;;;5030808;28;20452;-77
2023/10/04 01:55:46;;;;;;;5.03;2.80;;;12.20;1.00;;;;;;5030655;28;20464;-77
2023/10/04 01:58:15;;;;;;;5.80;3.30;;;12.10;1.00;;;;;;5030929;28;20436;-75
2023/10/04 02:00:40;;;;;;;5.50;3.10;;;12.00;1.00;;;;;;5026624;28;20545;-74
2023/10/04 02:03:07;;;;;;;7.33;3.63;;;12.00;1.00;;;;;;5030005;28;20748;-77
2023/10/04 02:05:37;;;;;;;5.53;3.53;;;12.00;1.00;;;;;;5031580;28;20178;-76
2023/10/04 02:08:05;;;;;;;9.67;3.93;;;12.00;1.00;;;;;;5029946;28;20417;-75
2023/10/04 02:10:31;;;;;;;6.93;3.00;;;12.00;1.00;;;;;;5030262;28;20412;-78
2023/10/04 02:12:56;;;;;;;6.57;3.80;;;12.00;1.00;;;;;;5030242;28;20482;-75
2023/10/04 02:15:22;;;;;;;5.70;3.07;;;12.10;1.00;;;;;;5029979;28;20189;-75
2023/10/04 02:17:49;;;;;;;4.93;3.13;;;12.10;1.00;;;;;;5030385;28;20205;-74
2023/10/04 02:20:28;;;;;;;3.97;2.70;;;12.40;1.00;;;;;;5029818;28;20181;-74
2023/10/04 02:22:54;;;;;;;5.10;2.63;;;12.00;1.00;;;;;;5029898;28;20551;-77
2023/10/04 02:25:20;;;;;;;5.27;3.20;;;11.90;1.00;;;;;;5027303;28;20421;-75
2023/10/04 02:27:48;;;;;;;7.67;3.20;;;11.90;1.00;;;;;;5030251;28;20558;-77
2023/10/04 02:30:15;;;;;;;5.57;2.83;;;11.90;1.00;;;;;;5027873;28;20673;-75
2023/10/04 02:32:45;;;;;;;4.17;2.70;;;11.80;1.00;;;;;;5023810;28;20455;-75
2023/10/04 02:35:20;;;;;;;8.07;3.30;;;11.80;1.00;;;;;;5029775;28;20430;-75
2023/10/04 02:37:45;;;;;;;5.63;3.03;;;11.70;1.00;;;;;;5026155;28;20911;-76
2023/10/04 02:40:14;;;;;;;5.33;3.07;;;11.70;1.00;;;;;;5030778;28;20513;-75
2023/10/04 02:42:41;;;;;;;6.03;3.07;;;11.60;1.00;;;;;;5029777;28;20248;-74
2023/10/04 02:45:08;;;;;;;4.23;2.93;;;11.50;1.00;;;;;;5029188;28;20440;-74
2023/10/04 02:47:33;;;;;;;6.30;3.23;;;11.50;1.00;;;;;;5029697;28;20916;-74
2023/10/04 02:49:59;;;;;;;5.60;2.90;;;13.30;1.00;;;;;;5029907;28;20474;-75
2023/10/04 02:52:24;;;;;;;4.80;2.87;;;11.30;1.00;;;;;;5029099;28;20197;-75
2023/10/04 02:54:50;;;;;;;8.33;3.43;;;11.20;1.00;;;;;;5026209;28;20189;-75
2023/10/04 02:57:15;;;;;;;5.03;3.20;;;11.10;1.00;;;;;;5019971;28;20297;-74
2023/10/04 02:59:41;;;;;;;6.40;3.37;;;11.20;1.00;;;;;;5022939;28;20654;-75
2023/10/04 03:02:07;;;;;;;6.10;3.40;;;11.20;1.00;;;;;;5019295;28;20265;-75
2023/10/04 03:04:34;;;;;;;4.00;2.83;;;11.10;1.00;;;;;;5022348;28;20178;-75
2023/10/04 03:07:00;;;;;;;6.10;2.97;;;11.00;1.00;;;;;;5025587;28;20193;-74
2023/10/04 03:09:26;;;;;;;4.90;3.10;;;11.00;1.00;;;;;;5025953;28;20822;-77
2023/10/04 03:11:52;;;;;;;5.20;3.10;;;11.00;1.00;;;;;;5019135;28;20452;-75
2023/10/04 03:14:18;;;;;;;5.97;3.30;;;11.00;1.00;;;;;;5017332;28;20270;-76
2023/10/04 03:16:43;;;;;;;5.03;2.90;;;11.00;1.00;;;;;;5027748;28;20460;-75
2023/10/04 03:19:10;;;;;;;5.63;3.13;;;11.00;1.00;;;;;;5029590;28;20182;-76
2023/10/04 03:21:38;;;;;;;5.77;2.97;;;11.00;1.00;;;;;;5028887;28;20193;-75
2023/10/04 03:24:10;;;;;;;5.30;2.77;;;11.00;1.00;;;;;;5028529;28;20801;-74
2023/10/04 03:26:37;;;;;;;6.20;2.90;;;11.00;1.00;;;;;;5024283;28;20539;-75
2023/10/04 03:29:04;;;;;;;5.43;3.43;;;11.00;1.00;;;;;;5023199;28;20444;-75
2023/10/04 03:31:30;;;;;;;7.07;3.47;;;11.00;1.00;;;;;;5024298;28;20989;-75
2023/10/04 03:33:56;;;;;;;5.40;2.60;;;11.00;1.00;;;;;;5021684;28;20424;-74
2023/10/04 03:36:21;;;;;;;5.43;3.10;;;11.00;1.00;;;;;;5022226;28;20979;-75
2023/10/04 03:38:49;;;;;;;5.00;2.80;;;11.70;1.00;;;;;;5026813;28;20253;-75
2023/10/04 03:41:16;;;;;;;7.50;3.47;;;10.70;1.00;;;;;;5023945;28;20177;-75
2023/10/04 03:43:42;;;;;;;4.63;3.00;;;10.80;1.00;;;;;;5024815;28;20511;-75
2023/10/04 03:46:17;;;;;;;6.80;3.03;;;10.80;1.00;;;;;;5028005;28;20436;-77
2023/10/04 03:48:48;;;;;;;6.60;3.00;;;10.80;1.00;;;;;;5023783;28;20263;-74
2023/10/04 03:51:19;;;;;;;5.13;3.30;;;10.80;1.00;;;;;;5023376;28;20424;-75
2023/10/04 03:53:46;;;;;;;4.70;2.87;;;10.80;1.00;;;;;;5025707;28;20420;-75
2023/10/04 03:56:12;;;;;;;4.27;2.90;;;10.80;1.00;;;;;;5018950;28;20568;-75
2023/10/04 03:58:38;;;;;;;5.17;3.00;;;10.70;1.00;;;;;;5024753;28;20509;-76
2023/10/04 04:01:05;;;;;;;4.70;2.90;;;;;;;;;;5022012;28;20649;-74
2023/10/04 04:03:30;;;;;;;5.77;3.07;;;10.60;1.00;;;;;;5024892;28;20181;-74
2023/10/04 04:05:56;;;;;;;6.50;3.00;;;10.60;1.00;;;;;;5027463;28;20428;-76
2023/10/04 04:08:22;;;;;;;6.03;3.30;;;10.60;1.00;;;;;;5040270;28;20612;-75
2023/10/04 04:10:49;;;;;;;5.90;2.73;;;10.60;1.00;;;;;;5021982;28;20293;-75
2023/10/04 04:13:15;;;;;;;5.00;3.13;;;10.50;1.00;;;;;;5021420;28;20190;-75
2023/10/04 04:15:40;;;;;;;6.50;3.03;;;10.50;1.00;;;;;;5017648;28;20436;-78
2023/10/04 04:18:06;;;;;;;4.87;3.20;;;10.50;1.00;;;;;;5026949;28;20660;-75
2023/10/04 04:20:35;;;;;;;5.70;3.00;;;10.40;1.00;;;;;;5026783;28;20174;-75
2023/10/04 04:23:03;;;;;;;5.10;3.20;;;10.50;1.00;;;;;;5026181;28;20206;-75
2023/10/04 04:25:29;;;;;;;5.23;3.10;;;10.50;1.00;;;;;;5023880;28;20526;-75
2023/10/04 04:27:56;;;;;;;5.03;2.97;;;10.50;1.00;;;;;;5026100;28;20486;-75
2023/10/04 04:30:28;;;;;;;6.07;3.47;;;10.50;1.00;;;;;;5027177;28;20186;-75
2023/10/04 04:32:57;;;;;;;4.80;3.00;;;10.40;1.00;;;;;;5025365;28;20464;-75
2023/10/04 04:37:56;;;;;;;6.77;3.80;;;10.40;1.00;;;;;;5028173;28;20800;-76
2023/10/04 04:40:30;;;;;;;7.20;3.87;;;10.40;1.00;;;;;;5043135;28;20946;-76
2023/10/04 04:43:02;;;;;;;6.80;3.43;;;10.40;1.00;;;;;;5023511;28;20480;-76
2023/10/04 04:45:28;;;;;;;6.40;3.17;;;10.40;1.00;;;;;;5021868;28;20435;-77
2023/10/04 04:47:55;;;;;;;5.43;3.53;;;10.40;1.00;;;;;;5026134;28;20432;-75
2023/10/04 04:50:24;;;;;;;6.70;3.10;;;10.50;1.00;;;;;;5023665;28;20435;-76
2023/10/04 04:52:51;;;;;;;5.20;3.33;;;10.50;1.00;;;;;;5026853;28;20460;-75
2023/10/04 04:55:16;;;;;;;6.00;3.90;;;10.50;1.00;;;;;;5024200;28;20529;-76
2023/10/04 04:57:42;;;;;;;7.40;3.50;;;10.50;1.00;;;;;;5027160;28;20548;-75
2023/10/04 05:02:52;;;;;;;6.90;3.63;;;10.40;1.00;;;;;;5018886;28;21145;-75
2023/10/04 05:05:20;;;;;;;4.20;2.87;;;10.40;1.00;;;;;;5023103;28;20515;-76
2023/10/04 05:07:47;;;;;;;6.80;4.10;;;10.40;1.00;;;;;;5022218;28;20174;-75
2023/10/04 05:10:14;;;;;;;6.90;3.37;;;10.40;1.00;;;;;;5025918;28;20430;-75
2023/10/04 05:12:40;;;;;;;7.57;3.80;;;10.40;1.00;;;;;;5028684;28;20444;-77
2023/10/04 05:15:21;;;;;;;6.83;3.70;;;10.40;1.00;;;;;;5018804;28;20429;-76
2023/10/04 05:17:50;;;;;;;8.03;4.20;;;10.60;1.00;;;;;;5025187;28;20460;-76
2023/10/04 05:20:19;;;;;;;5.60;3.60;;;10.40;1.00;;;;;;5030048;28;20420;-75
2023/10/04 05:22:45;;;;;;;7.63;3.57;;;10.40;1.00;;;;;;5030619;28;20440;-75
2023/10/04 05:25:12;;;;;;;5.97;3.57;;;10.30;1.00;;;;;;5030550;28;20427;-76
2023/10/04 05:27:37;;;;;;;6.63;3.53;;;10.30;1.00;;;;;;5028138;28;20842;-75
2023/10/04 05:30:04;;;;;;;6.33;3.83;;;10.30;1.00;;;;;;5023589;28;20445;-77
2023/10/04 05:32:30;;;;;;;8.90;3.87;;;10.30;1.00;;;;;;5028348;28;20288;-75
2023/10/04 05:34:55;;;;;;;5.67;3.70;;;10.40;1.00;;;;;;5030701;28;20520;-76
2023/10/04 05:37:21;;;;;;;6.60;3.60;;;10.40;1.00;;;;;;5032992;28;20216;-76
2023/10/04 05:39:47;;;;;;;5.83;3.40;;;10.40;1.00;;;;;;5033244;28;20178;-80
2023/10/04 05:42:12;;;;;;;6.73;3.10;;;10.40;1.00;;;;;;5028505;28;20200;-74
2023/10/04 05:44:38;;;;;;;5.80;3.63;;;10.40;1.00;;;;;;5030480;28;20182;-75
2023/10/04 05:47:05;;;;;;;7.93;3.67;;;10.40;1.00;;;;;;5030549;28;20185;-75
2023/10/04 05:49:31;;;;;;;9.80;3.97;;;10.30;1.00;;;;;;5030705;28;20210;-75
2023/10/04 05:51:58;;;;;;;4.73;3.27;;;10.30;1.00;;;;;;5037862;28;20454;-74
2023/10/04 05:54:23;;;;;;;8.17;4.97;;;10.40;1.00;;;;;;5028504;28;20431;-77
2023/10/04 05:56:49;;;;;;;5.40;3.80;;;10.50;1.00;;;;;;5026443;28;20475;-77
2023/10/04 05:59:14;;;;;;;13.67;4.77;;;10.50;1.00;;;;;;5026882;28;20236;-75
2023/10/04 06:01:41;;;;;;;6.00;4.37;;;10.60;1.00;;;;;;5029212;28;20748;-74
2023/10/04 06:04:07;;;;;;;10.00;4.47;;;10.70;1.00;;;;;;5028681;28;20255;-75
2023/10/04 06:06:33;;;;;;;8.43;4.67;;;10.80;1.00;;;;;;5029947;28;20436;-75
2023/10/04 06:08:59;;;;;;;5.73;4.03;;;10.90;1.00;;;;;;5026517;28;20178;-76
2023/10/04 06:11:25;;;;;;;5.27;3.37;;;11.00;1.00;;;;;;5027610;28;20177;-76
2023/10/04 06:13:50;;;;;;;7.43;3.73;;;11.00;1.00;;;;;;5022682;28;20182;-76
2023/10/04 06:16:20;;;;;;;7.53;3.73;;;11.10;1.00;;;;;;5025397;28;21000;-75
2023/10/04 06:18:48;;;;;;;7.63;4.00;;;11.20;1.00;;;;;;5028265;28;20703;-75
2023/10/04 06:21:16;;;;;;;6.70;3.90;;;11.40;1.00;;;;;;5022897;28;20432;-75
2023/10/04 06:23:45;;;;;;;9.83;3.83;;;11.30;1.00;;;;;;5025309;28;20425;-75
2023/10/04 06:26:16;;;;;;;9.00;4.10;;;11.50;1.00;;;;;;5018694;28;20447;-74
2023/10/04 06:28:43;;;;;;;7.90;4.50;;;11.50;1.00;;;;;;5021867;28;20519;-75
2023/10/04 06:31:08;;;;;;;7.77;4.50;;;11.80;1.00;;;;;;5028011;28;20432;-74
2023/10/04 06:33:34;;;;;;;7.30;4.33;;;11.70;1.00;;;;;;5028694;28;20425;-75
2023/10/04 06:36:00;;;;;;;6.73;4.27;;;11.80;1.00;;;;;;5027548;28;20194;-75
2023/10/04 06:38:25;;;;;;;8.60;4.57;;;11.90;1.00;;;;;;5028613;28;20436;-76
2023/10/04 06:40:52;;;;;;;9.67;5.83;;;12.00;1.00;;;;;;5027548;28;20178;-76
2023/10/04 06:43:18;;;;;;;16.90;5.70;;;12.10;1.00;;;;;;5026643;28;20277;-77
2023/10/04 06:45:43;;;;;;;10.13;5.70;;;12.10;1.00;;;;;;5017341;28;20600;-76
2023/10/04 06:48:09;;;;;;;8.27;4.97;;;12.20;1.00;;;;;;5025087;28;20178;-75
2023/10/04 06:50:37;;;;;;;11.95;5.32;;;12.20;1.00;;;;;;5016546;28;20436;-74
2023/10/04 06:53:04;;;;;;;9.30;5.10;;;12.30;1.00;;;;;;5024980;28;20197;-74
2023/10/04 06:55:30;;;;;;;8.27;4.53;;;12.40;1.00;;;;;;5012755;28;20820;-71
2023/10/04 06:57:56;;;;;;;8.97;4.30;;;12.50;1.00;;;;;;5027768;28;20468;-71
2023/10/04 07:00:30;;;;;;;13.73;4.37;;;12.60;1.00;;;;;;5024188;28;20554;-71
2023/10/04 07:02:59;;;;;;;11.67;4.23;;;12.60;1.00;;;;;;5018530;28;20210;-73
2023/10/04 07:05:39;;;;;;;11.63;4.80;;;12.60;1.00;;;;;;5023944;28;20507;-74
2023/10/04 07:08:12;;;;;;;6.13;3.90;;;12.70;1.00;;;;;;5027260;28;20439;-78
2023/10/04 07:10:38;;;;;;;9.20;4.37;;;12.80;1.00;;;;;;5027374;28;20436;-74
2023/10/04 07:13:06;;;;;;;8.70;3.70;;;12.80;1.00;;;;;;5024477;28;20444;-75
2023/10/04 07:15:35;;;;;;;8.17;4.60;;;12.90;1.00;;;;;;5025789;28;20169;-75
2023/10/04 07:18:07;;;;;;;7.30;4.07;;;13.00;1.00;;;;;;5027672;28;20613;-73
2023/10/04 07:20:37;;;;;;;6.70;3.90;;;13.10;1.00;;;;;;5044900;28;20432;-75
2023/10/04 07:23:05;;;;;;;7.17;4.20;;;13.20;1.00;;;;;;5043438;28;20696;-74
2023/10/04 07:25:34;;;;;;;10.60;4.70;;;13.20;1.00;;;;;;5028137;28;20509;-74
2023/10/04 07:28:02;;;;;;;8.47;3.70;;;13.30;1.00;;;;;;5023640;28;20985;-74
2023/10/04 07:30:28;;;;;;;9.17;4.40;;;13.30;1.00;;;;;;5027814;28;20435;-73
2023/10/04 07:32:54;;;;;;;6.17;3.80;;;13.40;1.00;;;;;;5016491;28;20532;-73
2023/10/04 07:35:25;;;;;;;6.40;4.03;;;13.50;1.00;;;;;;5032046;28;20458;-75
2023/10/04 07:37:51;;;;;;;8.23;4.40;;;13.50;1.00;;;;;;5021511;28;20464;-74
2023/10/04 07:40:16;;;;;;;10.77;3.60;;;13.50;1.00;;;;;;5022090;28;20432;-74
2023/10/04 07:42:45;;;;;;;7.00;4.17;;;13.60;1.00;;;;;;5033121;28;20198;-75
2023/10/04 07:45:12;;;;;;;8.53;3.50;;;13.60;1.00;;;;;;5024681;28;20236;-75
2023/10/04 07:47:41;;;;;;;9.03;4.47;;;13.70;1.00;;;;;;5022515;28;20698;-75
2023/10/04 07:50:09;;;;;;;6.03;4.17;;;13.90;1.00;;;;;;5027223;28;20440;-74
2023/10/04 07:52:37;;;;;;;7.40;3.73;;;14.00;1.00;;;;;;5025826;28;20849;-74
2023/10/04 07:55:05;;;;;;;7.20;3.70;;;14.30;1.00;;;;;;5027287;28;21024;-73
2023/10/04 07:57:31;;;;;;;6.90;3.60;;;14.10;1.00;;;;;;5025986;28;20918;-73
2023/10/04 07:59:57;;;;;;;5.17;3.37;;;14.10;1.00;;;;;;5024133;28;20430;-75
2023/10/04 08:02:23;;;;;;;6.77;3.20;;;14.20;1.00;;;;;;5026546;28;20455;-76
2023/10/04 08:04:49;;;;;;;7.00;3.70;;;14.20;1.00;;;;;;5026167;28;20600;-77
2023/10/04 08:07:15;;;;;;;5.83;3.27;;;14.30;1.00;;;;;;5027845;28;20182;-73
2023/10/04 08:09:41;;;;;;;5.50;3.77;;;16.00;1.00;;;;;;5021826;28;20177;-74
2023/10/04 08:12:07;;;;;;;13.73;4.37;;;14.50;1.00;;;;;;5027866;28;20505;-73
2023/10/04 08:14:33;;;;;;;4.70;3.20;;;14.60;1.00;;;;;;5027248;28;20177;-74
2023/10/04 08:16:59;;;;;;;6.03;3.40;;;14.80;1.00;;;;;;5027924;28;20241;-76
2023/10/04 08:19:26;;;;;;;8.97;3.40;;;14.80;1.00;;;;;;5016471;28;20174;-73
2023/10/04 08:21:51;;;;;;;10.20;4.13;;;14.90;1.00;;;;;;5024121;28;20252;-73
2023/10/04 08:24:17;;;;;;;5.60;3.53;;;15.00;1.00;;;;;;5016167;28;20884;-74
2023/10/04 08:26:43;;;;;;;6.00;3.27;;;15.30;1.00;;;;;;5022789;28;20230;-73
2023/10/04 08:29:10;;;;;;;5.63;3.70;;;16.40;1.00;;;;;;5025812;28;20723;-73
2023/10/04 08:31:36;;;;;;;9.10;4.30;;;18.50;1.00;;;;;;5027304;28;20459;-73
2023/10/04 08:34:02;;;;;;;6.27;3.70;;;20.40;1.00;;;;;;5024962;28;20467;-74
2023/10/04 08:36:28;;;;;;;11.23;3.30;;;22.00;1.00;;;;;;5023603;28;20529;-73
2023/10/04 08:38:53;;;;;;;9.10;3.33;;;22.70;1.00;;;;;;5026451;28;20431;-72
2023/10/04 08:41:20;;;;;;;7.30;3.60;;;24.50;1.00;;;;;;5025223;28;20173;-78
2023/10/04 08:43:47;;;;;;;6.10;3.40;;;24.70;1.00;;;;;;5026886;28;20174;-75
2023/10/04 08:46:16;;;;;;;5.50;3.50;;;25.50;1.00;;;;;;5031409;28;20512;-73
2023/10/04 08:48:49;;;;;;;6.40;3.23;;;26.70;1.00;;;;;;5044780;28;20189;-75
2023/10/04 08:51:28;;;;;;;4.90;3.03;;;27.90;1.00;;;;;;5030883;28;20185;-73
2023/10/04 08:54:08;;;;;;;6.15;3.40;;;28.00;1.00;;;;;;5030579;28;20231;-76
2023/10/04 08:56:44;;;;;;;10.70;3.80;;;28.10;1.00;;;;;;5028938;28;20193;-74
2023/10/04 08:59:11;;;;;;;6.95;3.15;;;27.80;1.00;;;;;;5027732;28;20692;-72
2023/10/04 09:01:39;;;;;;;7.57;2.95;;;28.90;1.00;;;;;;5029819;28;20193;-72
2023/10/04 09:04:05;;;;;;;13.38;2.95;;;29.80;1.00;;;;;;5031421;28;20264;-77
2023/10/04 09:06:31;;;;;;;5.25;3.10;;;29.50;1.00;;;;;;5025491;28;20257;-75
2023/10/04 09:08:57;;;;;;;6.28;2.67;;;29.80;1.00;;;;;;5028529;28;20594;-74
2023/10/04 09:11:23;;;;;;;6.95;3.28;;;30.50;1.00;;;;;;5030985;28;20186;-74
2023/10/04 09:13:52;;;;;;;8.88;3.03;;;30.50;1.00;;;;;;5031437;28;20239;-74
2023/10/04 09:16:31;;;;;;;11.95;2.95;;;30.80;1.00;;;;;;5026435;28;20205;-74
2023/10/04 09:19:06;;;;;;;9.02;3.00;;;31.30;1.00;;;;;;5024925;28;20169;-77
2023/10/04 09:21:33;;;;;;;5.47;2.80;;;30.90;1.00;;;;;;5031490;28;20768;-75
2023/10/04 09:24:09;;;;;;;6.25;2.75;;;30.60;1.00;;;;;;5024982;28;20225;-75
2023/10/04 09:26:42;;;;;;;9.80;3.25;;;30.80;1.00;;;;;;5031636;28;20184;-76
2023/10/04 09:29:10;;;;;;;8.95;2.97;;;31.40;1.00;;;;;;5031158;28;20376;-75
2023/10/04 09:31:50;;;;;;;6.63;2.97;;;31.80;1.00;;;;;;5032182;28;20276;-75
2023/10/04 09:34:16;;;;;;;7.65;2.88;;;32.40;1.00;;;;;;5029791;28;20601;-76
2023/10/04 09:36:42;;;;;;;7.63;2.55;;;30.60;1.00;;;;;;5030479;28;20370;-75
2023/10/04 09:39:13;;;;;;;7.10;2.55;;;29.10;1.00;;;;;;5029021;28;20288;-74
2023/10/04 09:41:43;;;;;;;7.25;2.60;;;29.70;1.00;;;;;;5029079;28;20203;-74
2023/10/04 09:44:21;;;;;;;8.38;2.95;;;28.60;1.00;;;;;;5028858;28;20280;-75
2023/10/04 09:46:54;;;;;;;10.82;3.47;;;27.10;1.00;;;;;;5030443;28;20551;-73
2023/10/04 09:49:40;;;;;;;8.93;2.90;;;26.40;1.00;;;;;;5029304;28;20659;-77
2023/10/04 09:52:14;;;;;;;5.90;2.80;;;26.40;1.00;;;;;;5031475;28;20216;-75
2023/10/04 09:54:40;;;;;;;11.67;3.03;;;26.60;1.00;;;;;;5028578;28;20203;-76
2023/10/04 09:57:07;;;;;;;8.43;2.88;;;28.10;1.00;;;;;;5031276;28;20201;-74
2023/10/04 09:59:37;;;;;;;11.40;2.50;;;29.50;1.00;;;;;;5030043;28;20192;-74
2023/10/04 10:02:07;;;;;;;5.35;2.58;;;31.30;1.00;;;;;;5029540;28;20201;-75
2023/10/04 10:04:40;;;;;;;9.80;2.47;;;31.30;1.00;;;;;;5029028;28;20687;-76
2023/10/04 10:07:36;;;;;;;5.80;2.63;;;31.80;1.00;;;;;;5030104;28;20186;-75
2023/10/04 10:10:05;;;;;;;6.78;2.45;;;31.00;1.00;;;;;;5019910;28;20225;-73
2023/10/04 10:12:34;;;;;;;9.95;2.55;;;27.70;1.00;;;;;;5032548;28;20204;-77
2023/10/04 10:15:01;;;;;;;11.63;2.30;;;25.40;1.00;;;;;;5022265;28;20208;-73
2023/10/04 10:17:28;;;;;;;7.00;2.13;;;23.90;1.00;;;;;;5024240;28;20571;-73
2023/10/04 10:19:55;;;;;;;4.83;2.07;;;24.50;1.00;;;;;;5032592;28;20268;-74
2023/10/04 10:22:20;;;;;;;9.73;2.43;;;24.10;1.00;;;;;;5031021;28;20204;-74
2023/10/04 10:24:55;;;;;;;6.60;2.30;;;23.10;1.00;;;;;;5026400;28;20424;-72
2023/10/04 10:27:23;;;;;;;7.77;2.90;;;22.20;1.00;;;;;;5023580;28;20189;-73
2023/10/04 10:29:50;;;;;;;9.53;2.20;;;21.60;1.00;;;;;;5030576;28;20436;-74
2023/10/04 10:32:20;;;;;;;10.27;2.67;;;22.60;1.00;;;;;;5029336;28;20475;-74
2023/10/04 10:34:58;;;;;;;8.60;2.50;;;23.30;1.00;;;;;;5031344;28;20762;-75
2023/10/04 10:37:27;;;;;;;5.30;2.20;;;24.80;1.00;;;;;;5013140;28;20463;-74
2023/10/04 10:39:55;;;;;;;5.70;2.23;;;24.10;1.00;;;;;;5021000;28;20447;-73
2023/10/04 10:42:22;;;;;;;4.73;2.30;;;26.80;1.00;;;;;;5026536;28;20897;-77
2023/10/04 10:44:50;;;;;;;9.33;2.00;;;27.90;1.00;;;;;;5028912;28;20674;-76
2023/10/04 10:47:25;;;;;;;6.13;2.20;;;30.00;1.00;;;;;;5016802;28;20444;-79
2023/10/04 10:50:01;;;;;;;5.45;2.15;;;31.40;1.00;;;;;;5036415;28;20180;-78
2023/10/04 10:52:43;;;;;;;5.40;2.30;;;32.70;1.00;;;;;;5030469;28;20549;-73
2023/10/04 10:55:18;;;;;;;7.40;2.10;;;33.60;1.00;;;;;;5033056;28;20260;-74
2023/10/04 10:57:47;;;;;;;4.55;1.90;;;34.00;1.00;;;;;;5022138;28;20639;-76
2023/10/04 11:00:19;;;;;;;4.53;2.30;;;32.70;1.00;;;;;;5024671;28;20196;-75
2023/10/04 11:02:46;;;;;;;6.63;2.15;;;30.90;1.00;;;;;;5027003;28;20193;-75
2023/10/04 11:05:16;;;;;;;6.25;2.05;;;28.90;1.00;;;;;;5026509;28;20251;-75
2023/10/04 11:07:41;;;;;;;7.67;2.33;;;27.30;1.00;;;;;;5026406;28;20184;-74
2023/10/04 11:10:07;;;;;;;5.20;2.00;;;26.40;1.00;;;;;;5023845;28;20180;-74
2023/10/04 11:12:37;;;;;;;6.70;2.30;;;25.30;1.00;;;;;;5022557;28;20276;-74
2023/10/04 11:15:06;;;;;;;5.97;2.63;;;24.50;1.00;;;;;;5028334;28;20189;-75
2023/10/04 11:17:35;;;;;;;5.07;2.20;;;25.10;1.00;;;;;;5029516;28;20547;-75
2023/10/04 11:20:06;;;;;;;6.40;2.43;;;26.30;1.00;;;;;;5021550;28;20423;-78
2023/10/04 11:22:31;;;;;;;6.47;2.43;;;25.90;1.00;;;;;;5031324;28;20267;-74
2023/10/04 11:24:57;;;;;;;5.90;2.03;;;25.60;1.00;;;;;;5022650;28;20431;-76
2023/10/04 11:27:23;;;;;;;4.90;2.00;;;24.80;1.00;;;;;;5025760;28;20209;-76
2023/10/04 11:29:50;;;;;;;7.93;2.80;;;24.70;1.00;;;;;;5022404;28;20185;-73
2023/10/04 11:32:17;;;;;;;5.17;2.33;;;24.70;1.00;;;;;;5021170;28;20443;-74
2023/10/04 11:34:44;;;;;;;5.20;2.00;;;24.90;1.00;;;;;;5031636;28;20435;-76
2023/10/04 11:37:10;;;;;;;8.57;2.53;;;24.10;1.00;;;;;;5029168;28;20977;-75
2023/10/04 11:39:36;;;;;;;7.40;2.23;;;23.10;1.00;;;;;;5028634;28;20494;-73
2023/10/04 11:42:03;;;;;;;7.20;2.53;;;22.30;1.00;;;;;;5027770;28;20468;-72
2023/10/04 11:44:30;;;;;;;6.60;2.77;;;21.90;1.00;;;;;;5030117;28;20442;-74
2023/10/04 11:47:04;;;;;;;8.20;2.40;;;24.20;1.00;;;;;;5024970;28;20436;-74
2023/10/04 11:49:32;;;;;;;5.30;2.43;;;27.00;1.00;;;;;;5025565;28;20458;-73
2023/10/04 11:52:00;;;;;;;8.53;2.27;;;26.60;1.00;;;;;;5031752;28;20535;-75
2023/10/04 11:54:44;;;;;;;5.60;2.10;;;25.80;1.00;;;;;;5025066;28;20439;-77
2023/10/04 11:57:10;;;;;;;5.17;2.00;;;26.40;1.00;;;;;;5021244;28;20578;-75
2023/10/04 11:59:36;;;;;;;4.60;2.10;;;27.50;1.00;;;;;;5025756;28;20489;-75
2023/10/04 12:02:02;;;;;;;6.13;2.10;;;28.30;1.00;;;;;;5029001;28;20197;-76
2023/10/04 12:04:31;;;;;;;6.65;2.10;;;30.30;1.00;;;;;;5024979;28;20523;-77
2023/10/04 12:07:04;;;;;;;4.80;2.10;;;30.20;1.00;;;;;;5026209;28;20281;-76
2023/10/04 12:09:39;;;;;;;4.43;2.03;;;28.90;1.00;;;;;;5027483;28;20599;-75
2023/10/04 12:12:05;;;;;;;6.70;2.10;;;26.90;1.00;;;;;;5027331;28;20204;-74
2023/10/04 12:14:32;;;;;;;5.60;2.07;;;25.50;1.00;;;;;;5021128;28;20177;-76
2023/10/04 12:17:04;;;;;;;6.50;2.10;;;25.80;1.00;;;;;;5025547;28;20707;-75
2023/10/04 12:19:34;;;;;;;6.50;2.50;;;26.10;1.00;;;;;;5031421;28;20173;-73
2023/10/04 12:22:11;;;;;;;6.10;1.90;;;26.00;1.00;;;;;;5032353;28;20817;-77
2023/10/04 12:24:38;;;;;;;9.20;2.50;;;25.50;1.00;;;;;;5029330;28;20853;-77
2023/10/04 12:27:08;;;;;;;5.70;2.03;;;24.60;1.00;;;;;;5030516;28;20527;-76
2023/10/04 12:29:35;;;;;;;5.27;2.20;;;25.30;1.00;;;;;;5027460;28;20449;-76
2023/10/04 12:32:00;;;;;;;5.17;2.20;;;28.20;1.00;;;;;;5031069;28;20541;-75
2023/10/04 12:34:27;;;;;;;6.07;2.30;;;30.50;1.00;;;;;;5029157;28;20662;-76
2023/10/04 12:36:53;;;;;;;4.57;1.95;;;31.80;1.00;;;;;;5033070;28;20211;-74
2023/10/04 12:39:21;;;;;;;6.13;2.47;;;33.30;1.00;;;;;;5032831;28;20263;-75
2023/10/04 12:41:47;;;;;;;5.80;2.22;;;35.30;1.00;;;;;;5032988;28;20223;-75
2023/10/04 12:44:13;;;;;;;5.38;2.10;;;36.10;1.00;;;;;;5033353;28;20181;-75
2023/10/04 12:46:39;;;;;;;8.50;2.08;;;36.80;1.00;;;;;;5032671;28;20677;-76
2023/10/04 12:49:07;;;;;;;9.88;2.42;;;36.20;1.00;;;;;;5032836;28;20627;-75
2023/10/04 12:51:33;;;;;;;5.22;2.20;;;35.60;1.00;;;;;;5031200;28;20689;-75
2023/10/04 12:53:59;;;;;;;4.45;2.17;;;34.20;1.00;;;;;;5032995;28;20211;-76
2023/10/04 12:56:26;;;;;;;3.97;1.85;;;33.50;1.00;;;;;;5032433;28;20248;-75
2023/10/04 12:58:51;;;;;;;7.47;2.30;;;32.40;1.00;;;;;;5032381;28;20268;-76
2023/10/04 13:01:21;;;;;;;6.40;2.10;;;31.70;1.00;;;;;;5029501;28;20751;-81
2023/10/04 13:03:47;;;;;;;6.60;2.33;;;31.80;1.00;;;;;;5032598;28;20173;-77
2023/10/04 13:06:14;;;;;;;5.50;2.38;;;31.80;1.00;;;;;;5032516;28;20276;-76